sensor_id;sensor_type;location;lat;lon;timestamp;pressure;altitude;pressure_sealevel;temperature;humidity
19208;BME280;9737;59.466;18.036;2023-12-29T00:02:27;95574.81;;;0.78;89.13
19208;BME280;9737;59.466;18.036;2023-12-29T00:04:55;95572.22;;;0.78;88.60
19208;BME280;9737;59.466;18.036;2023-12-29T00:07:23;95577.44;;;0.78;88.79
19208;BME280;9737;59.466;18.036;2023-12-29T00:09:51;95587.56;;;0.81;88.58
19208;BME280;9737;59.466;18.036;2023-12-29T00:12:18;95587.56;;;0.81;88.92
19208;BME280;9737;59.466;18.036;2023-12-29T00:14:48;95588.38;;;0.82;88.87
19208;BME280;9737;59.466;18.036;2023-12-29T00:17:16;95589.19;;;0.82;88.54
19208;BME280;9737;59.466;18.036;2023-12-29T00:19:44;95629.03;;;0.92;88.72
19208;BME280;9737;59.466;18.036;2023-12-29T00:22:12;95604.53;;;0.85;88.66
19208;BME280;9737;59.466;18.036;2023-12-29T00:24:40;95607.16;;;0.85;89.07
19208;BME280;9737;59.466;18.036;2023-12-29T00:27:08;95603.88;;;0.83;88.78
19208;BME280;9737;59.466;18.036;2023-12-29T00:29:35;95615.66;;;0.87;88.87
19208;BME280;9737;59.466;18.036;2023-12-29T00:32:05;95607.16;;;0.85;88.95
19208;BME280;9737;59.466;18.036;2023-12-29T00:34:33;95591.00;;;0.82;88.97
19208;BME280;9737;59.466;18.036;2023-12-29T00:37:01;95591.00;;;0.82;88.75
19208;BME280;9737;59.466;18.036;2023-12-29T00:39:30;95593.44;;;0.83;88.64
19208;BME280;9737;59.466;18.036;2023-12-29T00:42:05;95592.63;;;0.83;88.47
19208;BME280;9737;59.466;18.036;2023-12-29T00:44:33;95590.50;;;0.78;88.78
19208;BME280;9737;59.466;18.036;2023-12-29T00:47:01;95584.47;;;0.78;88.81
19208;BME280;9737;59.466;18.036;2023-12-29T00:49:31;95564.72;;;0.75;88.72
19208;BME280;9737;59.466;18.036;2023-12-29T00:51:58;95551.81;;;0.74;88.57
19208;BME280;9737;59.466;18.036;2023-12-29T00:54:27;95559.81;;;0.72;88.52
19208;BME280;9737;59.466;18.036;2023-12-29T00:56:56;95555.41;;;0.73;88.75
19208;BME280;9737;59.466;18.036;2023-12-29T00:59:23;95571.56;;;0.76;89.02
19208;BME280;9737;59.466;18.036;2023-12-29T01:01:51;95564.72;;;0.75;88.97
19208;BME280;9737;59.466;18.036;2023-12-29T01:04:19;95560.63;;;0.73;88.93
19208;BME280;9737;59.466;18.036;2023-12-29T01:06:49;95557.38;;;0.71;88.68
19208;BME280;9737;59.466;18.036;2023-12-29T01:09:17;95564.06;;;0.73;88.86
19208;BME280;9737;59.466;18.036;2023-12-29T01:11:45;95561.09;;;0.76;89.18
19208;BME280;9737;59.466;18.036;2023-12-29T01:14:13;95564.72;;;0.75;89.21
19208;BME280;9737;59.466;18.036;2023-12-29T01:16:43;95572.56;;;0.75;89.01
19208;BME280;9737;59.466;18.036;2023-12-29T01:19:10;95558.19;;;0.71;88.92
19208;BME280;9737;59.466;18.036;2023-12-29T01:21:38;95545.13;;;0.71;88.84
19208;BME280;9737;59.466;18.036;2023-12-29T01:24:08;95543.50;;;0.70;88.99
19208;BME280;9737;59.466;18.036;2023-12-29T01:26:36;95548.72;;;0.70;88.91
19208;BME280;9737;59.466;18.036;2023-12-29T01:29:05;95532.75;;;0.65;89.04
19208;BME280;9737;59.466;18.036;2023-12-29T01:31:33;95525.06;;;0.64;89.14
19208;BME280;9737;59.466;18.036;2023-12-29T01:34:01;95530.28;;;0.64;88.83
19208;BME280;9737;59.466;18.036;2023-12-29T01:36:29;95512.50;;;0.59;88.94
19208;BME280;9737;59.466;18.036;2023-12-29T01:38:57;95490.28;;;0.55;88.69
19208;BME280;9737;59.466;18.036;2023-12-29T01:41:27;95495.50;;;0.55;88.72
19208;BME280;9737;59.466;18.036;2023-12-29T01:44:18;95493.06;;;0.53;89.00
19208;BME280;9737;59.466;18.036;2023-12-29T01:46:48;95498.13;;;0.55;89.13
19208;BME280;9737;59.466;18.036;2023-12-29T01:49:16;95498.78;;;0.57;88.80
19208;BME280;9737;59.466;18.036;2023-12-29T01:51:49;95486.22;;;0.52;88.79
19208;BME280;9737;59.466;18.036;2023-12-29T01:54:19;95488.03;;;0.52;88.93
19208;BME280;9737;59.466;18.036;2023-12-29T01:56:50;95497.31;;;0.54;88.90
19208;BME280;9737;59.466;18.036;2023-12-29T01:59:19;95492.25;;;0.53;88.87
19208;BME280;9737;59.466;18.036;2023-12-29T02:01:53;95515.94;;;0.59;88.65
19208;BME280;9737;59.466;18.036;2023-12-29T02:04:23;95519.38;;;0.60;89.06
19208;BME280;9737;59.466;18.036;2023-12-29T02:06:51;95512.50;;;0.59;88.97
19208;BME280;9737;59.466;18.036;2023-12-29T02:09:19;95524.25;;;0.63;88.75
19208;BME280;9737;59.466;18.036;2023-12-29T02:11:48;95531.09;;;0.64;88.75
19208;BME280;9737;59.466;18.036;2023-12-29T02:14:17;95521.00;;;0.61;88.96
19208;BME280;9737;59.466;18.036;2023-12-29T02:16:52;95530.28;;;0.64;88.77
19208;BME280;9737;59.466;18.036;2023-12-29T02:19:38;95519.38;;;0.60;88.95
19208;BME280;9737;59.466;18.036;2023-12-29T02:22:08;95512.34;;;0.60;88.70
19208;BME280;9737;59.466;18.036;2023-12-29T02:24:37;95516.59;;;0.61;89.19
19208;BME280;9737;59.466;18.036;2023-12-29T02:27:12;95518.38;;;0.61;88.88
19208;BME280;9737;59.466;18.036;2023-12-29T02:29:56;95537.97;;;0.65;88.65
19208;BME280;9737;59.466;18.036;2023-12-29T02:32:29;95518.38;;;0.61;89.28
19208;BME280;9737;59.466;18.036;2023-12-29T02:34:58;95535.19;;;0.67;88.81
19208;BME280;9737;59.466;18.036;2023-12-29T02:37:28;95571.56;;;0.76;88.63
19208;BME280;9737;59.466;18.036;2023-12-29T02:39:58;95559.00;;;0.72;88.93
19208;BME280;9737;59.466;18.036;2023-12-29T02:42:27;95550.34;;;0.71;88.53
19208;BME280;9737;59.466;18.036;2023-12-29T02:44:55;95552.97;;;0.71;88.92
19208;BME280;9737;59.466;18.036;2023-12-29T02:47:23;95548.09;;;0.68;88.86
19208;BME280;9737;59.466;18.036;2023-12-29T02:49:51;95549.53;;;0.71;88.95
19208;BME280;9737;59.466;18.036;2023-12-29T02:52:19;95558.19;;;0.71;88.89
19208;BME280;9737;59.466;18.036;2023-12-29T02:54:47;95551.97;;;0.72;89.29
19208;BME280;9737;59.466;18.036;2023-12-29T02:57:15;95561.63;;;0.72;89.03
19208;BME280;9737;59.466;18.036;2023-12-29T02:59:44;95542.84;;;0.68;88.76
19208;BME280;9737;59.466;18.036;2023-12-29T03:02:12;95551.69;;;0.67;89.01
19208;BME280;9737;59.466;18.036;2023-12-29T03:04:39;95548.91;;;0.69;89.05
19208;BME280;9737;59.466;18.036;2023-12-29T03:07:07;95550.69;;;0.68;89.15
19208;BME280;9737;59.466;18.036;2023-12-29T03:09:35;95546.44;;;0.67;89.24
19208;BME280;9737;59.466;18.036;2023-12-29T03:12:04;95542.84;;;0.68;88.85
19208;BME280;9737;59.466;18.036;2023-12-29T03:14:32;95541.06;;;0.69;89.36
19208;BME280;9737;59.466;18.036;2023-12-29T03:17:02;95540.41;;;0.67;88.80
19208;BME280;9737;59.466;18.036;2023-12-29T03:19:30;95549.72;;;0.69;89.04
19208;BME280;9737;59.466;18.036;2023-12-29T03:21:57;95543.84;;;0.67;88.83
19208;BME280;9737;59.466;18.036;2023-12-29T03:24:26;95534.72;;;0.63;89.12
19208;BME280;9737;59.466;18.036;2023-12-29T03:26:54;95548.09;;;0.68;88.83
19208;BME280;9737;59.466;18.036;2023-12-29T03:29:22;95524.25;;;0.63;88.89
19208;BME280;9737;59.466;18.036;2023-12-29T03:31:50;95553.31;;;0.68;89.04
19208;BME280;9737;59.466;18.036;2023-12-29T03:34:19;95530.81;;;0.59;88.96
19208;BME280;9737;59.466;18.036;2023-12-29T03:36:47;95543.03;;;0.67;88.81
19208;BME280;9737;59.466;18.036;2023-12-29T03:39:15;95535.53;;;0.64;89.03
19208;BME280;9737;59.466;18.036;2023-12-29T03:41:43;95527.84;;;0.62;89.27
19208;BME280;9737;59.466;18.036;2023-12-29T03:44:11;95538.78;;;0.66;88.64
19208;BME280;9737;59.466;18.036;2023-12-29T03:46:39;95543.19;;;0.65;89.13
19208;BME280;9737;59.466;18.036;2023-12-29T03:49:06;95541.22;;;0.67;89.00
19208;BME280;9737;59.466;18.036;2023-12-29T03:51:37;95522.63;;;0.62;88.89
19208;BME280;9737;59.466;18.036;2023-12-29T03:54:05;95527.84;;;0.62;88.64
19208;BME280;9737;59.466;18.036;2023-12-29T03:56:32;95534.53;;;0.65;88.86
19208;BME280;9737;59.466;18.036;2023-12-29T03:59:00;95517.75;;;0.59;88.73
19208;BME280;9737;59.466;18.036;2023-12-29T04:01:28;95511.53;;;0.60;88.90
19208;BME280;9737;59.466;18.036;2023-12-29T04:03:56;95513.31;;;0.59;88.91
19208;BME280;9737;59.466;18.036;2023-12-29T04:06:24;95526.22;;;0.61;88.85
19208;BME280;9737;59.466;18.036;2023-12-29T04:08:53;95519.38;;;0.60;89.03
19208;BME280;9737;59.466;18.036;2023-12-29T04:11:21;95535.34;;;0.65;89.07
19208;BME280;9737;59.466;18.036;2023-12-29T04:13:48;95531.91;;;0.65;89.00
19208;BME280;9737;59.466;18.036;2023-12-29T04:16:16;95526.88;;;0.63;88.91
19208;BME280;9737;59.466;18.036;2023-12-29T04:18:44;95524.59;;;0.60;88.98
19208;BME280;9737;59.466;18.036;2023-12-29T04:21:13;95535.34;;;0.65;88.95
19208;BME280;9737;59.466;18.036;2023-12-29T04:23:41;95536.34;;;0.64;89.19
19208;BME280;9737;59.466;18.036;2023-12-29T04:26:10;95523.59;;;0.61;89.14
19208;BME280;9737;59.466;18.036;2023-12-29T04:28:38;95512.66;;;0.57;88.93
19208;BME280;9737;59.466;18.036;2023-12-29T04:31:06;95510.88;;;0.58;89.02
19208;BME280;9737;59.466;18.036;2023-12-29T04:33:34;95512.50;;;0.59;88.74
19208;BME280;9737;59.466;18.036;2023-12-29T04:36:02;95496.50;;;0.54;89.05
19208;BME280;9737;59.466;18.036;2023-12-29T04:38:30;95516.13;;;0.58;88.88
19208;BME280;9737;59.466;18.036;2023-12-29T04:40:58;95507.59;;;0.56;88.93
19208;BME280;9737;59.466;18.036;2023-12-29T04:43:28;95495.50;;;0.55;88.87
19208;BME280;9737;59.466;18.036;2023-12-29T04:45:55;95509.22;;;0.57;88.78
19208;BME280;9737;59.466;18.036;2023-12-29T04:48:24;95502.53;;;0.54;88.78
19208;BME280;9737;59.466;18.036;2023-12-29T04:50:52;95513.50;;;0.58;89.19
19208;BME280;9737;59.466;18.036;2023-12-29T04:53:19;95523.59;;;0.61;89.22
19208;BME280;9737;59.466;18.036;2023-12-29T04:55:47;95519.38;;;0.60;88.93
19208;BME280;9737;59.466;18.036;2023-12-29T04:58:15;95502.38;;;0.56;88.83
19208;BME280;9737;59.466;18.036;2023-12-29T05:00:44;95512.50;;;0.59;89.05
19208;BME280;9737;59.466;18.036;2023-12-29T05:03:12;95525.25;;;0.62;88.84
19208;BME280;9737;59.466;18.036;2023-12-29T05:05:40;95535.34;;;0.65;89.28
19208;BME280;9737;59.466;18.036;2023-12-29T05:08:09;95530.28;;;0.64;89.06
19208;BME280;9737;59.466;18.036;2023-12-29T05:10:37;95556.91;;;0.67;88.96
19208;BME280;9737;59.466;18.036;2023-12-29T05:13:04;95538.94;;;0.64;89.06
19208;BME280;9737;59.466;18.036;2023-12-29T05:15:32;95546.44;;;0.67;89.11
19208;BME280;9737;59.466;18.036;2023-12-29T05:18:02;95544.81;;;0.66;89.18
19208;BME280;9737;59.466;18.036;2023-12-29T05:20:31;95516.13;;;0.58;89.03
19208;BME280;9737;59.466;18.036;2023-12-29T05:23:00;95537.97;;;0.65;89.31
19208;BME280;9737;59.466;18.036;2023-12-29T05:25:28;95527.84;;;0.62;89.07
19208;BME280;9737;59.466;18.036;2023-12-29T05:27:56;95507.59;;;0.56;89.05
19208;BME280;9737;59.466;18.036;2023-12-29T05:30:24;95499.94;;;0.54;89.29
19208;BME280;9737;59.466;18.036;2023-12-29T05:32:53;95504.34;;;0.54;88.88
19208;BME280;9737;59.466;18.036;2023-12-29T05:35:22;95512.81;;;0.56;89.04
19208;BME280;9737;59.466;18.036;2023-12-29T05:37:50;95505.16;;;0.54;88.84
19208;BME280;9737;59.466;18.036;2023-12-29T05:40:18;95509.56;;;0.54;89.07
19208;BME280;9737;59.466;18.036;2023-12-29T05:42:46;95516.13;;;0.58;89.02
19208;BME280;9737;59.466;18.036;2023-12-29T05:45:15;95495.84;;;0.52;89.15
19208;BME280;9737;59.466;18.036;2023-12-29T05:47:43;95496.69;;;0.52;89.23
19208;BME280;9737;59.466;18.036;2023-12-29T05:50:11;95491.63;;;0.51;88.93
19208;BME280;9737;59.466;18.036;2023-12-29T05:52:40;95501.72;;;0.54;89.16
19208;BME280;9737;59.466;18.036;2023-12-29T05:55:08;95509.41;;;0.55;88.73
19208;BME280;9737;59.466;18.036;2023-12-29T05:57:36;95495.69;;;0.53;88.98
19208;BME280;9737;59.466;18.036;2023-12-29T06:00:04;95502.53;;;0.54;89.45
19208;BME280;9737;59.466;18.036;2023-12-29T06:02:32;95496.69;;;0.52;88.87
19208;BME280;9737;59.466;18.036;2023-12-29T06:05:00;95510.22;;;0.56;89.05
19208;BME280;9737;59.466;18.036;2023-12-29T06:07:28;95491.44;;;0.52;88.69
19208;BME280;9737;59.466;18.036;2023-12-29T06:09:57;95487.38;;;0.50;89.09
19208;BME280;9737;59.466;18.036;2023-12-29T06:12:25;95501.56;;;0.55;89.09
19208;BME280;9737;59.466;18.036;2023-12-29T06:14:53;95504.34;;;0.54;89.27
19208;BME280;9737;59.466;18.036;2023-12-29T06:17:20;95494.88;;;0.53;89.19
19208;BME280;9737;59.466;18.036;2023-12-29T06:19:48;95499.47;;;0.51;89.02
19208;BME280;9737;59.466;18.036;2023-12-29T06:22:16;95501.72;;;0.54;89.14
19208;BME280;9737;59.466;18.036;2023-12-29T06:24:44;95510.22;;;0.56;89.10
19208;BME280;9737;59.466;18.036;2023-12-29T06:27:13;95498.47;;;0.52;89.44
19208;BME280;9737;59.466;18.036;2023-12-29T06:29:41;95504.34;;;0.54;89.05
19208;BME280;9737;59.466;18.036;2023-12-29T06:32:09;95524.75;;;0.58;89.16
19208;BME280;9737;59.466;18.036;2023-12-29T06:34:37;95512.81;;;0.56;89.26
19208;BME280;9737;59.466;18.036;2023-12-29T06:37:05;95516.94;;;0.58;89.13
19208;BME280;9737;59.466;18.036;2023-12-29T06:39:33;95514.44;;;0.57;89.55
19208;BME280;9737;59.466;18.036;2023-12-29T06:42:01;95507.59;;;0.56;89.12
19208;BME280;9737;59.466;18.036;2023-12-29T06:44:29;95539.94;;;0.63;88.94
19208;BME280;9737;59.466;18.036;2023-12-29T06:46:56;95521.16;;;0.59;89.08
19208;BME280;9737;59.466;18.036;2023-12-29T06:49:24;95534.06;;;0.61;88.94
19208;BME280;9737;59.466;18.036;2023-12-29T06:51:52;95534.72;;;0.63;89.32
19208;BME280;9737;59.466;18.036;2023-12-29T06:54:20;95544.00;;;0.66;89.12
19208;BME280;9737;59.466;18.036;2023-12-29T06:56:48;95559.19;;;0.70;89.08
19208;BME280;9737;59.466;18.036;2023-12-29T06:59:16;95556.56;;;0.70;89.11
19208;BME280;9737;59.466;18.036;2023-12-29T07:01:46;95573.06;;;0.71;88.80
19208;BME280;9737;59.466;18.036;2023-12-29T07:04:14;95585.63;;;0.75;89.01
19208;BME280;9737;59.466;18.036;2023-12-29T07:06:43;95579.09;;;0.71;89.53
19208;BME280;9737;59.466;18.036;2023-12-29T07:09:11;95564.41;;;0.70;89.17
19208;BME280;9737;59.466;18.036;2023-12-29T07:11:38;95584.00;;;0.74;89.21
19208;BME280;9737;59.466;18.036;2023-12-29T07:14:06;95572.25;;;0.70;88.91
19208;BME280;9737;59.466;18.036;2023-12-29T07:16:34;95563.41;;;0.71;89.01
19208;BME280;9737;59.466;18.036;2023-12-29T07:19:04;95584.00;;;0.74;89.17
19208;BME280;9737;59.466;18.036;2023-12-29T07:21:31;95587.44;;;0.75;88.87
19208;BME280;9737;59.466;18.036;2023-12-29T07:23:59;95599.34;;;0.77;89.31
19208;BME280;9737;59.466;18.036;2023-12-29T07:26:27;95585.63;;;0.75;89.21
19208;BME280;9737;59.466;18.036;2023-12-29T07:28:55;95561.97;;;0.69;88.79
19208;BME280;9737;59.466;18.036;2023-12-29T07:31:23;95551.69;;;0.67;89.03
19208;BME280;9737;59.466;18.036;2023-12-29T07:33:51;95547.59;;;0.65;89.25
19208;BME280;9737;59.466;18.036;2023-12-29T07:36:20;95548.09;;;0.68;89.16
19208;BME280;9737;59.466;18.036;2023-12-29T07:38:49;95565.41;;;0.69;89.38
19208;BME280;9737;59.466;18.036;2023-12-29T07:41:17;95551.69;;;0.67;89.15
19208;BME280;9737;59.466;18.036;2023-12-29T07:43:45;95555.28;;;0.66;89.27
19208;BME280;9737;59.466;18.036;2023-12-29T07:46:12;95548.44;;;0.65;89.39
19208;BME280;9737;59.466;18.036;2023-12-29T07:48:40;95539.94;;;0.63;89.61
19208;BME280;9737;59.466;18.036;2023-12-29T07:51:08;95538.31;;;0.62;88.95
19208;BME280;9737;59.466;18.036;2023-12-29T07:53:37;95535.53;;;0.64;89.16
19208;BME280;9737;59.466;18.036;2023-12-29T07:56:06;95544.81;;;0.66;88.97
19208;BME280;9737;59.466;18.036;2023-12-29T07:58:34;95579.75;;;0.73;89.16
19208;BME280;9737;59.466;18.036;2023-12-29T08:01:02;95587.44;;;0.75;88.86
19208;BME280;9737;59.466;18.036;2023-12-29T08:03:30;95601.97;;;0.77;89.45
19208;BME280;9737;59.466;18.036;2023-12-29T08:05:57;95622.19;;;0.83;89.34
19208;BME280;9737;59.466;18.036;2023-12-29T08:08:26;95623.81;;;0.84;89.35
19208;BME280;9737;59.466;18.036;2023-12-29T08:10:55;95626.13;;;0.87;89.15
19208;BME280;9737;59.466;18.036;2023-12-29T08:13:23;95631.34;;;0.87;89.33
19208;BME280;9737;59.466;18.036;2023-12-29T08:15:51;95647.69;;;0.89;89.22
19208;BME280;9737;59.466;18.036;2023-12-29T08:18:19;95646.72;;;0.90;89.29
19208;BME280;9737;59.466;18.036;2023-12-29T08:20:47;95640.84;;;0.88;89.55
19208;BME280;9737;59.466;18.036;2023-12-29T08:23:14;95652.75;;;0.91;89.28
19208;BME280;9737;59.466;18.036;2023-12-29T08:25:42;95652.41;;;0.94;89.42
19208;BME280;9737;59.466;18.036;2023-12-29T08:28:11;95670.56;;;0.96;89.51
19208;BME280;9737;59.466;18.036;2023-12-29T08:30:39;95679.03;;;0.98;89.32
19208;BME280;9737;59.466;18.036;2023-12-29T08:33:07;95736.53;;;1.14;89.36
19208;BME280;9737;59.466;18.036;2023-12-29T08:35:35;95809.41;;;1.33;89.43
19208;BME280;9737;59.466;18.036;2023-12-29T08:38:03;95839.34;;;1.39;89.24
19208;BME280;9737;59.466;18.036;2023-12-29T08:40:31;95864.69;;;1.46;89.22
19208;BME280;9737;59.466;18.036;2023-12-29T08:42:59;95868.78;;;1.49;89.49
19208;BME280;9737;59.466;18.036;2023-12-29T08:45:29;95913.91;;;1.59;89.28
19208;BME280;9737;59.466;18.036;2023-12-29T08:47:57;95957.25;;;1.70;89.05
19208;BME280;9737;59.466;18.036;2023-12-29T08:50:26;95992.63;;;1.82;89.21
19208;BME280;9737;59.466;18.036;2023-12-29T08:52:54;96059.88;;;1.98;89.42
19208;BME280;9737;59.466;18.036;2023-12-29T08:55:21;96088.19;;;2.02;89.25
19208;BME280;9737;59.466;18.036;2023-12-29T08:57:49;96100.00;;;2.06;89.27
19208;BME280;9737;59.466;18.036;2023-12-29T09:00:17;96113.44;;;2.11;89.35
19208;BME280;9737;59.466;18.036;2023-12-29T09:02:46;96174.69;;;2.27;89.20
19208;BME280;9737;59.466;18.036;2023-12-29T09:05:14;96208.13;;;2.33;89.30
19208;BME280;9737;59.466;18.036;2023-12-29T09:07:42;96222.38;;;2.38;89.22
19208;BME280;9737;59.466;18.036;2023-12-29T09:10:10;96231.06;;;2.39;89.21
19208;BME280;9737;59.466;18.036;2023-12-29T09:12:39;96240.88;;;2.45;89.26
19208;BME280;9737;59.466;18.036;2023-12-29T09:15:07;96254.66;;;2.47;89.43
19208;BME280;9737;59.466;18.036;2023-12-29T09:17:35;96277.75;;;2.52;89.11
19208;BME280;9737;59.466;18.036;2023-12-29T09:20:05;96298.91;;;2.58;89.29
19208;BME280;9737;59.466;18.036;2023-12-29T09:22:37;96323.84;;;2.62;89.18
19208;BME280;9737;59.466;18.036;2023-12-29T09:25:05;96345.16;;;2.67;89.29
19208;BME280;9737;59.466;18.036;2023-12-29T09:27:33;96374.84;;;2.76;89.07
19208;BME280;9737;59.466;18.036;2023-12-29T09:30:01;96380.41;;;2.81;89.50
19208;BME280;9737;59.466;18.036;2023-12-29T09:32:30;96417.31;;;2.88;89.08
19208;BME280;9737;59.466;18.036;2023-12-29T09:34:58;96433.75;;;2.90;89.38
19208;BME280;9737;59.466;18.036;2023-12-29T09:37:27;96436.03;;;2.93;89.29
19208;BME280;9737;59.466;18.036;2023-12-29T09:39:55;96448.84;;;2.96;89.03
19208;BME280;9737;59.466;18.036;2023-12-29T09:42:24;96430.13;;;2.91;89.47
19208;BME280;9737;59.466;18.036;2023-12-29T09:44:53;96462.63;;;2.98;89.32
19208;BME280;9737;59.466;18.036;2023-12-29T09:47:22;96460.97;;;2.97;89.50
19208;BME280;9737;59.466;18.036;2023-12-29T09:49:51;96470.16;;;3.01;89.46
19208;BME280;9737;59.466;18.036;2023-12-29T09:52:21;96474.44;;;3.02;89.30
19208;BME280;9737;59.466;18.036;2023-12-29T09:54:51;96478.84;;;3.01;89.31
19208;BME280;9737;59.466;18.036;2023-12-29T09:57:20;96503.63;;;3.07;89.31
19208;BME280;9737;59.466;18.036;2023-12-29T09:59:48;96501.00;;;3.07;89.54
19208;BME280;9737;59.466;18.036;2023-12-29T10:02:20;96452.44;;;2.95;89.25
19208;BME280;9737;59.466;18.036;2023-12-29T10:04:49;96475.41;;;3.01;88.97
19208;BME280;9737;59.466;18.036;2023-12-29T10:07:24;96465.25;;;2.98;89.05
19208;BME280;9737;59.466;18.036;2023-12-29T10:09:55;96449.16;;;2.93;89.22
19208;BME280;9737;59.466;18.036;2023-12-29T10:12:27;96458.19;;;2.98;89.33
19208;BME280;9737;59.466;18.036;2023-12-29T10:15:03;96439.66;;;2.92;89.22
19208;BME280;9737;59.466;18.036;2023-12-29T10:17:40;96446.53;;;2.93;89.60
19208;BME280;9737;59.466;18.036;2023-12-29T10:20:16;96442.28;;;2.92;89.10
19208;BME280;9737;59.466;18.036;2023-12-29T10:22:54;96432.22;;;2.87;89.36
19208;BME280;9737;59.466;18.036;2023-12-29T10:25:28;96432.06;;;2.89;89.55
19208;BME280;9737;59.466;18.036;2023-12-29T10:27:57;96415.84;;;2.85;89.54
19208;BME280;9737;59.466;18.036;2023-12-29T10:30:26;96393.03;;;2.77;89.37
19208;BME280;9737;59.466;18.036;2023-12-29T10:33:01;96370.72;;;2.73;89.32
19208;BME280;9737;59.466;18.036;2023-12-29T10:35:31;96386.16;;;2.76;89.46
19208;BME280;9737;59.466;18.036;2023-12-29T10:38:11;96390.25;;;2.79;89.39
19208;BME280;9737;59.466;18.036;2023-12-29T10:40:41;96410.75;;;2.84;89.37
19208;BME280;9737;59.466;18.036;2023-12-29T10:43:10;96434.56;;;2.90;89.42
19208;BME280;9737;59.466;18.036;2023-12-29T10:45:38;96422.72;;;2.86;89.50
19208;BME280;9737;59.466;18.036;2023-12-29T10:48:06;96423.53;;;2.87;89.30
19208;BME280;9737;59.466;18.036;2023-12-29T10:50:43;96408.94;;;2.84;89.38
19208;BME280;9737;59.466;18.036;2023-12-29T10:53:12;96412.38;;;2.85;89.40
19208;BME280;9737;59.466;18.036;2023-12-29T10:55:41;96435.69;;;2.88;89.40
19208;BME280;9737;59.466;18.036;2023-12-29T10:58:09;96441.44;;;2.91;89.54
19208;BME280;9737;59.466;18.036;2023-12-29T11:00:37;96456.06;;;2.94;89.41
19208;BME280;9737;59.466;18.036;2023-12-29T11:03:05;96470.50;;;2.98;89.46
19208;BME280;9737;59.466;18.036;2023-12-29T11:05:34;96471.16;;;3.00;89.14
19208;BME280;9737;59.466;18.036;2023-12-29T11:08:15;96459.50;;;2.94;89.48
19208;BME280;9737;59.466;18.036;2023-12-29T11:10:44;96456.38;;;2.91;89.44
19208;BME280;9737;59.466;18.036;2023-12-29T11:13:13;96464.59;;;2.96;89.30
19208;BME280;9737;59.466;18.036;2023-12-29T11:15:46;96456.22;;;2.92;89.24
19208;BME280;9737;59.466;18.036;2023-12-29T11:18:15;96452.78;;;2.92;89.44
19208;BME280;9737;59.466;18.036;2023-12-29T11:20:45;96473.94;;;2.98;89.36
19208;BME280;9737;59.466;18.036;2023-12-29T11:23:13;96450.97;;;2.92;89.42
19208;BME280;9737;59.466;18.036;2023-12-29T11:25:46;96484.94;;;3.02;89.57
19208;BME280;9737;59.466;18.036;2023-12-29T11:28:15;96489.19;;;3.03;89.44
19208;BME280;9737;59.466;18.036;2023-12-29T11:30:43;96496.09;;;3.04;89.29
19208;BME280;9737;59.466;18.036;2023-12-29T11:33:21;96513.81;;;3.10;89.44
19208;BME280;9737;59.466;18.036;2023-12-29T11:35:53;96530.88;;;3.14;89.44
19208;BME280;9737;59.466;18.036;2023-12-29T11:38:33;96525.94;;;3.11;89.64
19208;BME280;9737;59.466;18.036;2023-12-29T11:41:08;96530.06;;;3.14;89.23
19208;BME280;9737;59.466;18.036;2023-12-29T11:43:38;96523.50;;;3.09;89.63
19208;BME280;9737;59.466;18.036;2023-12-29T11:46:06;96483.28;;;3.01;89.26
19208;BME280;9737;59.466;18.036;2023-12-29T11:48:54;96477.38;;;2.99;89.38
19208;BME280;9737;59.466;18.036;2023-12-29T11:51:30;96491.00;;;3.02;89.23
19208;BME280;9737;59.466;18.036;2023-12-29T11:53:59;96506.25;;;3.07;89.34
19208;BME280;9737;59.466;18.036;2023-12-29T11:56:33;96517.56;;;3.07;89.51
19208;BME280;9737;59.466;18.036;2023-12-29T11:59:15;96509.69;;;3.07;89.49
19208;BME280;9737;59.466;18.036;2023-12-29T12:01:45;96493.63;;;3.02;89.59
19208;BME280;9737;59.466;18.036;2023-12-29T12:04:36;96461.28;;;2.94;89.51
19208;BME280;9737;59.466;18.036;2023-12-29T12:07:07;96444.38;;;2.88;89.49
19208;BME280;9737;59.466;18.036;2023-12-29T12:09:35;96420.25;;;2.85;89.26
19208;BME280;9737;59.466;18.036;2023-12-29T12:12:05;96407.13;;;2.76;89.63
19208;BME280;9737;59.466;18.036;2023-12-29T12:14:50;96410.09;;;2.82;89.29
19208;BME280;9737;59.466;18.036;2023-12-29T12:17:28;96425.50;;;2.85;89.49
19208;BME280;9737;59.466;18.036;2023-12-29T12:19:58;96398.28;;;2.77;89.54
19208;BME280;9737;59.466;18.036;2023-12-29T12:22:29;96369.41;;;2.69;89.35
19208;BME280;9737;59.466;18.036;2023-12-29T12:24:59;96336.97;;;2.62;89.55
19208;BME280;9737;59.466;18.036;2023-12-29T12:27:30;96315.63;;;2.57;89.49
19208;BME280;9737;59.466;18.036;2023-12-29T12:29:59;96294.31;;;2.52;89.60
19208;BME280;9737;59.466;18.036;2023-12-29T12:32:28;96273.81;;;2.47;89.38
19208;BME280;9737;59.466;18.036;2023-12-29T12:34:56;96256.13;;;2.41;89.58
19208;BME280;9737;59.466;18.036;2023-12-29T12:37:25;96231.38;;;2.36;89.51
19208;BME280;9737;59.466;18.036;2023-12-29T12:39:54;96215.31;;;2.31;89.50
19208;BME280;9737;59.466;18.036;2023-12-29T12:42:23;96206.13;;;2.27;89.49
19208;BME280;9737;59.466;18.036;2023-12-29T12:44:56;96192.38;;;2.25;89.48
19208;BME280;9737;59.466;18.036;2023-12-29T12:47:33;96171.72;;;2.22;89.59
19208;BME280;9737;59.466;18.036;2023-12-29T12:50:04;96137.03;;;2.11;89.60
19208;BME280;9737;59.466;18.036;2023-12-29T12:52:33;96131.13;;;2.09;89.55
19208;BME280;9737;59.466;18.036;2023-12-29T12:55:02;96155.84;;;2.15;89.57
19208;BME280;9737;59.466;18.036;2023-12-29T12:57:31;96115.72;;;2.06;89.75
19208;BME280;9737;59.466;18.036;2023-12-29T13:00:02;96107.22;;;2.04;89.56
19208;BME280;9737;59.466;18.036;2023-12-29T13:02:31;96093.78;;;1.99;89.57
19208;BME280;9737;59.466;18.036;2023-12-29T13:04:59;96085.25;;;1.97;89.56
19208;BME280;9737;59.466;18.036;2023-12-29T13:07:29;96081.00;;;1.96;89.79
19208;BME280;9737;59.466;18.036;2023-12-29T13:09:57;96057.09;;;1.91;89.63
19208;BME280;9737;59.466;18.036;2023-12-29T13:12:25;96056.44;;;1.89;89.74
19208;BME280;9737;59.466;18.036;2023-12-29T13:14:53;96022.41;;;1.81;89.42
19208;BME280;9737;59.466;18.036;2023-12-29T13:17:22;96012.91;;;1.80;89.72
19208;BME280;9737;59.466;18.036;2023-12-29T13:19:57;96032.56;;;1.84;89.47
19208;BME280;9737;59.466;18.036;2023-12-29T13:22:26;96012.28;;;1.78;89.50